My Rose — 3EJF8 — position and weather

sailwx.info

Track history (hours):
 
Tides and Currents Weather Stations Pressure Air Temp Water Temp Dewpoint Dewpoint Depression Visibility Wind Speed Wind Dir Waves Ship Positions

My Rose

Last reported at 2018-Apr-23 03:59 UTC. Time now 2018-Apr-23 04:00 UTC.
Position N 44°34' E 038°02'.

Length 132 m; draft 4.4 m.

Type: Cargo ship. MMSI: 372505000.

Date/timePositionNaut miles runAvg speedWind from/ knotsBaromVisibWave heightAir tempDewpointWater temp
2018-Apr-23 03:59N 44°34' E 038°02'0 0.0
2018-Apr-23 03:29N 44°34' E 038°02'0 0.0
2018-Apr-23 02:58N 44°34' E 038°02'0 0.0
2018-Apr-23 02:28N 44°34' E 038°02'0 0.0
2018-Apr-23 01:58N 44°34' E 038°02'0 0.0
2018-Apr-23 01:28N 44°34' E 038°02'0 0.0
2018-Apr-23 00:58N 44°34' E 038°02'0 0.0
2018-Apr-23 00:28N 44°34' E 038°02'0 0.0
2018-Apr-22 23:58N 44°34' E 038°02'0 0.0
2018-Apr-22 23:28N 44°34' E 038°02'0 0.0
2018-Apr-22 22:55N 44°34' E 038°02'0 0.0
2018-Apr-22 22:28N 44°34' E 038°02'0 0.0
2018-Apr-22 21:55N 44°34' E 038°02'0 0.0
2018-Apr-22 21:28N 44°34' E 038°02'0 0.0
2018-Apr-22 20:55N 44°34' E 038°02'0 0.0
2018-Apr-22 20:28N 44°34' E 038°02'0 0.0
2018-Apr-22 19:58N 44°34' E 038°02'1 1.8
2018-Apr-22 19:30N 44°34' E 038°03'2 2.9
2018-Apr-22 18:58N 44°32' E 038°02'0 0.0
2018-Apr-22 18:28N 44°32' E 038°02'0 0.1
2018-Apr-22 17:58N 44°32' E 038°02'3 6.7
2018-Apr-22 17:30N 44°30' E 037°60'810.8
2018-Apr-22 16:46N 44°23' E 037°55'410.8
2018-Apr-22 16:27N 44°19' E 037°53'  
2018-Apr-18 13:49N 44°12' E 037°50'412.0
2018-Apr-18 13:30N 44°15' E 037°51'1011.7
2018-Apr-18 12:40N 44°24' E 037°57'211.7
2018-Apr-18 12:29N 44°26' E 037°58'  
2018-Apr-15 01:46N 44°32' E 038°04'0 0.1
2018-Apr-15 01:30N 44°32' E 038°04'0 0.1
2018-Apr-15 01:00N 44°32' E 038°04'0 0.0
2018-Apr-15 00:30N 44°32' E 038°04'0 0.1
2018-Apr-15 00:00N 44°32' E 038°04'0 0.1
2018-Apr-14 23:30N 44°32' E 038°04'0 0.0
2018-Apr-14 23:00N 44°32' E 038°04'0 0.1
2018-Apr-14 22:30N 44°32' E 038°04'0 0.0
2018-Apr-14 22:00N 44°32' E 038°04'0 0.1
2018-Apr-14 21:30N 44°32' E 038°04'0 0.0
2018-Apr-14 21:00N 44°32' E 038°04'0 0.0
2018-Apr-14 20:30N 44°32' E 038°04'0 0.0
2018-Apr-14 19:57N 44°32' E 038°04'0 0.0
2018-Apr-14 19:30N 44°32' E 038°04'0 0.0
2018-Apr-14 19:00N 44°32' E 038°04'0 0.0
2018-Apr-14 18:30N 44°32' E 038°04'0 0.0
2018-Apr-14 18:00N 44°32' E 038°04'0 0.1
2018-Apr-14 17:30N 44°32' E 038°04'0 0.1
2018-Apr-14 17:00N 44°32' E 038°04'0 0.0
2018-Apr-14 16:30N 44°32' E 038°04'0 0.1
2018-Apr-14 16:00N 44°32' E 038°04'0 0.0
2018-Apr-14 15:30N 44°32' E 038°04'0 0.0
2018-Apr-14 15:00N 44°32' E 038°04'0 0.0
2018-Apr-14 14:30N 44°32' E 038°04'0 0.2
2018-Apr-14 14:00N 44°32' E 038°04'4 8.6
2018-Apr-14 13:30N 44°29' E 038°00'510.3
2018-Apr-14 12:58N 44°23' E 037°57'610.4
2018-Apr-14 12:24N 44°18' E 037°54'  
Track history (hours):
 
Tides and Currents Weather Stations Pressure Air Temp Water Temp Dewpoint Dewpoint Depression Visibility Wind Speed Wind Dir Waves Ship Positions

My Rose

Last reported at 2018-Apr-23 03:59 UTC. Time now 2018-Apr-23 04:00 UTC.
Position N 44°34' E 038°02'.

Length 132 m; draft 4.4 m.

Type: Cargo ship. MMSI: 372505000.

Date/timePositionNaut miles runAvg speedWind from/ knotsBaromVisibWave heightAir tempDewpointWater temp
2018-Apr-23 03:59N 44°34' E 038°02'0 0.0
2018-Apr-23 03:29N 44°34' E 038°02'0 0.0
2018-Apr-23 02:58N 44°34' E 038°02'0 0.0
2018-Apr-23 02:28N 44°34' E 038°02'0 0.0
2018-Apr-23 01:58N 44°34' E 038°02'0 0.0
2018-Apr-23 01:28N 44°34' E 038°02'0 0.0
2018-Apr-23 00:58N 44°34' E 038°02'0 0.0
2018-Apr-23 00:28N 44°34' E 038°02'0 0.0
2018-Apr-22 23:58N 44°34' E 038°02'0 0.0
2018-Apr-22 23:28N 44°34' E 038°02'0 0.0
2018-Apr-22 22:55N 44°34' E 038°02'0 0.0
2018-Apr-22 22:28N 44°34' E 038°02'0 0.0
2018-Apr-22 21:55N 44°34' E 038°02'0 0.0
2018-Apr-22 21:28N 44°34' E 038°02'0 0.0
2018-Apr-22 20:55N 44°34' E 038°02'0 0.0
2018-Apr-22 20:28N 44°34' E 038°02'0 0.0
2018-Apr-22 19:58N 44°34' E 038°02'1 1.8
2018-Apr-22 19:30N 44°34' E 038°03'2 2.9
2018-Apr-22 18:58N 44°32' E 038°02'0 0.0
2018-Apr-22 18:28N 44°32' E 038°02'0 0.1
2018-Apr-22 17:58N 44°32' E 038°02'3 6.7
2018-Apr-22 17:30N 44°30' E 037°60'810.8
2018-Apr-22 16:46N 44°23' E 037°55'410.8
2018-Apr-22 16:27N 44°19' E 037°53'  
2018-Apr-18 13:49N 44°12' E 037°50'412.0
2018-Apr-18 13:30N 44°15' E 037°51'1011.7
2018-Apr-18 12:40N 44°24' E 037°57'211.7
2018-Apr-18 12:29N 44°26' E 037°58'  
2018-Apr-15 01:46N 44°32' E 038°04'0 0.1
2018-Apr-15 01:30N 44°32' E 038°04'0 0.1
2018-Apr-15 01:00N 44°32' E 038°04'0 0.0
2018-Apr-15 00:30N 44°32' E 038°04'0 0.1
2018-Apr-15 00:00N 44°32' E 038°04'0 0.1
2018-Apr-14 23:30N 44°32' E 038°04'0 0.0
2018-Apr-14 23:00N 44°32' E 038°04'0 0.1
2018-Apr-14 22:30N 44°32' E 038°04'0 0.0
2018-Apr-14 22:00N 44°32' E 038°04'0 0.1
2018-Apr-14 21:30N 44°32' E 038°04'0 0.0
2018-Apr-14 21:00N 44°32' E 038°04'0 0.0
2018-Apr-14 20:30N 44°32' E 038°04'0 0.0
2018-Apr-14 19:57N 44°32' E 038°04'0 0.0
2018-Apr-14 19:30N 44°32' E 038°04'0 0.0
2018-Apr-14 19:00N 44°32' E 038°04'0 0.0
2018-Apr-14 18:30N 44°32' E 038°04'0 0.0
2018-Apr-14 18:00N 44°32' E 038°04'0 0.1
2018-Apr-14 17:30N 44°32' E 038°04'0 0.1
2018-Apr-14 17:00N 44°32' E 038°04'0 0.0
2018-Apr-14 16:30N 44°32' E 038°04'0 0.1
2018-Apr-14 16:00N 44°32' E 038°04'0 0.0
2018-Apr-14 15:30N 44°32' E 038°04'0 0.0
2018-Apr-14 15:00N 44°32' E 038°04'0 0.0
2018-Apr-14 14:30N 44°32' E 038°04'0 0.2
2018-Apr-14 14:00N 44°32' E 038°04'4 8.6
2018-Apr-14 13:30N 44°29' E 038°00'510.3
2018-Apr-14 12:58N 44°23' E 037°57'610.4
2018-Apr-14 12:24N 44°18' E 037°54'  

Dump ship's entire track history